createdAt,value
2022-08-16T00:05:48.137Z,65
2022-08-16T00:15:51.217Z,65
2022-08-16T00:26:34.034Z,66
2022-08-16T00:36:02.933Z,66
2022-08-16T00:46:22.562Z,67
2022-08-16T00:56:06.746Z,67
2022-08-16T01:06:32.457Z,68
2022-08-16T01:16:11.616Z,68
2022-08-16T01:26:33.883Z,69
2022-08-16T01:36:15.806Z,69
2022-08-16T01:46:30.228Z,69
2022-08-16T02:06:26.009Z,70
2022-08-16T02:16:24.019Z,70
2022-08-16T02:26:25.824Z,71
2022-08-16T02:36:47.263Z,71
2022-08-16T02:46:30.064Z,71
2022-08-16T02:56:32.202Z,71
2022-08-16T03:06:38.973Z,72
2022-08-16T03:16:38.557Z,72
2022-08-16T03:26:38.048Z,73
2022-08-16T03:36:39.846Z,74
2022-08-16T03:46:44.788Z,74
2022-08-16T03:56:56.530Z,74
2022-08-16T04:06:47.074Z,75
2022-08-16T04:16:49.082Z,76
2022-08-16T04:26:51.344Z,76
2022-08-16T04:36:53.495Z,77
2022-08-16T04:47:01.578Z,77
2022-08-16T04:56:57.425Z,77
2022-08-16T05:06:59.326Z,77
2022-08-16T05:27:11.272Z,76
2022-08-16T05:37:07.081Z,75
2022-08-16T05:47:09.099Z,75
2022-08-16T05:57:13.206Z,74
2022-08-16T06:07:25.269Z,73
2022-08-16T06:17:15.716Z,73
2022-08-16T06:27:17.477Z,72
2022-08-16T06:37:19.308Z,71
2022-08-16T06:57:23.511Z,69
2022-08-16T07:07:25.199Z,68
2022-08-16T07:17:27.137Z,68
2022-08-16T07:27:32.171Z,68
2022-08-16T07:47:33.810Z,65
2022-08-16T07:57:38.160Z,62
2022-08-16T08:07:38.836Z,61
2022-08-16T08:17:42.420Z,61
2022-08-16T08:27:44.158Z,59
2022-08-16T08:37:51.218Z,58
2022-08-16T08:57:49.713Z,54
2022-08-16T09:07:54.589Z,53
2022-08-16T09:17:54.878Z,53
2022-08-16T09:28:01.519Z,52
2022-08-16T09:38:00.756Z,51
2022-08-16T09:48:00.560Z,49
2022-08-16T09:58:03.053Z,48
2022-08-16T10:18:54.063Z,46
2022-08-16T10:38:10.916Z,43
2022-08-16T10:48:23.873Z,43
2022-08-16T10:58:16.793Z,42
2022-08-16T11:08:17.916Z,40
2022-08-16T11:18:49.160Z,40
2022-08-16T11:29:12.433Z,39
2022-08-16T11:38:47.751Z,39
2022-08-16T11:48:26.196Z,38
2022-08-16T11:58:28.328Z,38
2022-08-16T12:08:30.696Z,37
2022-08-16T12:28:37.152Z,35
2022-08-16T12:38:38.509Z,35
2022-08-16T12:48:38.801Z,36
2022-08-16T12:58:47.661Z,37
2022-08-16T13:08:43.325Z,35
2022-08-16T13:18:45.038Z,34
2022-08-16T13:28:47.840Z,36
2022-08-16T13:38:49.480Z,37
2022-08-16T13:48:51.872Z,36
2022-08-16T13:58:54.058Z,36
2022-08-16T14:08:58.979Z,36
2022-08-16T14:18:57.738Z,35
2022-08-16T14:29:03.533Z,36
2022-08-16T14:39:02.270Z,37
2022-08-16T14:49:04.445Z,38
2022-08-16T14:59:06.625Z,38
2022-08-16T15:09:08.523Z,36
2022-08-16T15:19:10.242Z,36
2022-08-16T15:29:12.294Z,36
2022-08-16T15:39:24.573Z,36
2022-08-16T15:59:18.775Z,37
2022-08-16T16:29:25.708Z,37
2022-08-16T16:49:29.732Z,37
2022-08-16T16:59:31.653Z,38
2022-08-16T17:19:37.487Z,38
2022-08-16T17:49:41.787Z,37
2022-08-16T17:59:43.736Z,37
2022-08-16T18:09:46.181Z,39
2022-08-16T18:19:48.054Z,40
2022-08-16T18:29:51.251Z,41
2022-08-16T18:39:52.637Z,42
2022-08-16T18:49:54.915Z,44
2022-08-16T19:09:58.750Z,47
2022-08-16T19:20:00.849Z,47
2022-08-16T19:30:03.421Z,48
2022-08-16T19:40:05.572Z,48
2022-08-16T19:50:07.481Z,48
2022-08-16T20:00:11.318Z,49
2022-08-16T20:30:15.840Z,53
2022-08-16T20:40:18.295Z,52
2022-08-16T20:50:19.730Z,52
2022-08-16T21:00:21.558Z,53
2022-08-16T21:10:23.734Z,54
2022-08-16T21:30:29.300Z,55
2022-08-16T21:40:31.054Z,54
2022-08-16T22:00:35.422Z,55
2022-08-16T22:11:05.331Z,57
2022-08-16T22:20:39.359Z,58
2022-08-16T22:30:42.041Z,59
2022-08-16T22:40:44.326Z,61
2022-08-16T22:50:46.542Z,61
2022-08-16T23:10:50.897Z,63
2022-08-16T23:20:53.518Z,62
2022-08-16T23:30:55.218Z,63
2022-08-16T23:40:57.680Z,63
2022-08-16T23:50:59.377Z,62
